createdAt,value
2023-04-09T00:01:47.708Z,7.40
2023-04-09T00:04:48.878Z,7.35
2023-04-09T00:07:48.691Z,7.32
2023-04-09T00:10:50.706Z,7.29
2023-04-09T00:13:52.721Z,7.26
2023-04-09T00:16:52.910Z,7.24
2023-04-09T00:19:52.790Z,7.22
2023-04-09T00:22:54.747Z,7.20
2023-04-09T00:25:54.735Z,7.17
2023-04-09T00:28:54.737Z,7.13
2023-04-09T00:31:55.867Z,7.11
2023-04-09T00:34:56.795Z,7.08
2023-04-09T00:37:57.755Z,7.07
2023-04-09T00:40:57.746Z,7.04
2023-04-09T00:43:58.810Z,7.02
2023-04-09T00:47:03.778Z,7.01
2023-04-09T00:50:04.798Z,7.02
2023-04-09T00:53:05.763Z,7.00
2023-04-09T00:56:06.785Z,6.95
2023-04-09T00:59:10.793Z,6.91
2023-04-09T01:02:10.895Z,6.90
2023-04-09T01:05:11.818Z,6.90
2023-04-09T01:08:24.805Z,6.89
2023-04-09T01:11:24.786Z,6.89
2023-04-09T01:14:24.886Z,6.88
2023-04-09T01:17:36.852Z,6.87
2023-04-09T01:20:45.852Z,6.85
2023-04-09T01:23:45.871Z,6.84
2023-04-09T01:27:04.918Z,6.82
2023-04-09T01:30:16.829Z,6.78
2023-04-09T01:33:17.828Z,6.74
2023-04-09T01:36:18.848Z,6.72
2023-04-09T01:39:18.969Z,6.70
2023-04-09T01:42:18.885Z,6.68
2023-04-09T01:45:23.962Z,6.66
2023-04-09T01:48:23.889Z,6.65
2023-04-09T01:51:23.855Z,6.64
2023-04-09T01:54:27.997Z,6.62
2023-04-09T01:57:28.004Z,6.59
2023-04-09T02:00:27.908Z,6.56
2023-04-09T02:03:34.977Z,6.53
2023-04-09T02:06:34.944Z,6.51
2023-04-09T02:09:46.503Z,6.49
2023-04-09T02:12:46.887Z,6.47
2023-04-09T02:15:47.983Z,6.45
2023-04-09T02:18:50.626Z,6.43
2023-04-09T02:21:51.939Z,6.41
2023-04-09T02:24:51.969Z,6.40
2023-04-09T02:27:52.022Z,6.39
2023-04-09T02:30:52.131Z,6.38
2023-04-09T02:33:51.949Z,6.35
2023-04-09T02:36:53.928Z,6.32
2023-04-09T02:39:55.037Z,6.31
2023-04-09T02:42:55.915Z,6.31
2023-04-09T02:45:56.033Z,6.28
2023-04-09T02:48:58.012Z,6.27
2023-04-09T02:51:58.021Z,6.27
2023-04-09T02:54:58.005Z,6.26
2023-04-09T02:57:59.279Z,6.26
2023-04-09T03:00:59.990Z,6.24
2023-04-09T03:04:01.120Z,6.22
2023-04-09T03:07:02.144Z,6.18
2023-04-09T03:10:05.064Z,6.15
2023-04-09T03:13:05.046Z,6.14
2023-04-09T03:16:06.090Z,6.13
2023-04-09T03:19:08.075Z,6.12
2023-04-09T03:22:08.131Z,6.12
2023-04-09T03:25:08.063Z,6.13
2023-04-09T03:28:08.035Z,6.15
2023-04-09T03:31:12.127Z,6.18
2023-04-09T03:34:12.052Z,6.21
2023-04-09T03:37:17.215Z,6.25
2023-04-09T03:40:18.063Z,6.29
2023-04-09T03:43:19.072Z,6.35
2023-04-09T03:46:25.192Z,6.42
2023-04-09T03:49:25.116Z,6.50
2023-04-09T03:52:32.143Z,6.57
2023-04-09T03:55:33.061Z,6.65
2023-04-09T03:58:35.125Z,6.73
2023-04-09T04:01:35.149Z,6.81
2023-04-09T04:04:35.199Z,6.88
2023-04-09T04:07:44.142Z,6.96
2023-04-09T04:10:52.177Z,7.03
2023-04-09T04:13:57.149Z,7.07
2023-04-09T04:17:02.253Z,7.12
2023-04-09T04:20:08.159Z,7.17
2023-04-09T04:23:38.132Z,7.20
2023-04-09T04:26:48.122Z,7.24
2023-04-09T04:29:48.252Z,7.28
2023-04-09T04:33:13.256Z,7.33
2023-04-09T04:36:20.175Z,7.48
2023-04-09T04:39:22.198Z,7.85
2023-04-09T04:42:26.417Z,8.23
2023-04-09T04:45:27.274Z,8.59
2023-04-09T04:48:32.152Z,9.04
2023-04-09T04:51:33.211Z,9.34
2023-04-09T04:54:35.227Z,9.41
2023-04-09T04:57:37.200Z,9.57
2023-04-09T05:00:37.200Z,9.61
2023-04-09T05:03:37.355Z,9.66
2023-04-09T05:06:51.196Z,9.87
2023-04-09T05:09:51.244Z,10.26
2023-04-09T05:12:56.308Z,10.69
2023-04-09T05:16:00.295Z,10.89
2023-04-09T05:19:00.216Z,11.21
2023-04-09T05:22:00.263Z,11.79
2023-04-09T05:25:03.389Z,12.42
2023-04-09T05:28:04.217Z,13.02
2023-04-09T05:31:04.314Z,13.65
2023-04-09T05:34:05.325Z,14.02
2023-04-09T05:37:08.236Z,14.19
2023-04-09T05:40:11.523Z,14.47
2023-04-09T05:43:12.289Z,14.86
2023-04-09T05:46:12.385Z,15.26
2023-04-09T05:49:12.331Z,15.64
2023-04-09T05:52:13.433Z,15.83
2023-04-09T05:55:13.372Z,16.14
2023-04-09T05:58:26.304Z,15.93
2023-04-09T06:01:26.379Z,15.35
2023-04-09T06:04:26.432Z,14.86
2023-04-09T06:07:35.534Z,14.46
2023-04-09T06:10:35.348Z,14.20
2023-04-09T06:13:35.461Z,14.13
2023-04-09T06:16:41.373Z,14.10
2023-04-09T06:19:43.349Z,14.09
2023-04-09T06:22:44.668Z,14.05
2023-04-09T06:25:46.384Z,14.14
2023-04-09T06:28:46.413Z,14.40
2023-04-09T06:31:47.414Z,14.67
2023-04-09T06:34:47.370Z,14.77
2023-04-09T06:37:55.378Z,14.57
2023-04-09T06:40:56.370Z,14.59
2023-04-09T06:44:02.421Z,14.71
2023-04-09T06:47:02.488Z,15.01
2023-04-09T06:50:02.405Z,15.40
2023-04-09T06:53:03.456Z,15.79
2023-04-09T06:56:03.397Z,16.46
2023-04-09T06:59:04.389Z,17.10
2023-04-09T07:02:05.484Z,17.82
2023-04-09T07:05:05.478Z,18.30
2023-04-09T07:08:05.447Z,18.16
2023-04-09T07:11:09.454Z,18.02
2023-04-09T07:14:09.644Z,18.38
2023-04-09T07:17:10.456Z,18.71
2023-04-09T07:20:12.460Z,18.98
2023-04-09T07:23:12.483Z,19.28
2023-04-09T07:26:14.512Z,19.28
2023-04-09T07:29:14.460Z,19.19
2023-04-09T07:32:15.486Z,19.47
2023-04-09T07:35:16.527Z,19.93
2023-04-09T07:38:16.478Z,20.54
2023-04-09T07:41:23.540Z,21.03
2023-04-09T07:44:23.518Z,21.33
2023-04-09T07:47:25.811Z,21.52
2023-04-09T07:50:25.518Z,21.92
2023-04-09T07:53:25.585Z,22.50
2023-04-09T07:56:27.016Z,23.05
2023-04-09T07:59:28.716Z,23.46
2023-04-09T08:02:28.730Z,23.57
2023-04-09T08:05:31.527Z,24.04
2023-04-09T08:08:34.571Z,24.51
2023-04-09T08:11:35.652Z,24.62
2023-04-09T08:14:39.366Z,24.77
2023-04-09T08:17:39.631Z,25.02
2023-04-09T08:20:40.914Z,25.25
2023-04-09T08:23:46.569Z,25.19
2023-04-09T08:26:47.722Z,25.00
2023-04-09T08:29:54.659Z,25.03
2023-04-09T08:32:55.790Z,25.20
2023-04-09T08:35:55.758Z,25.22
2023-04-09T08:38:56.683Z,24.96
2023-04-09T08:41:56.596Z,24.97
2023-04-09T08:45:01.957Z,25.37
2023-04-09T08:48:05.684Z,25.53
2023-04-09T08:51:11.633Z,25.68
2023-04-09T08:54:11.656Z,25.38
2023-04-09T08:57:11.662Z,24.92
2023-04-09T09:00:12.818Z,24.66
2023-04-09T09:03:22.317Z,24.47
2023-04-09T09:06:28.777Z,24.43
2023-04-09T09:09:29.900Z,24.52
2023-04-09T09:12:50.625Z,24.87
2023-04-09T09:15:50.692Z,25.13
2023-04-09T09:18:54.809Z,25.54
2023-04-09T09:21:55.707Z,26.06
2023-04-09T09:25:00.720Z,26.47
2023-04-09T09:28:03.022Z,26.85
2023-04-09T09:31:02.825Z,27.12
2023-04-09T09:34:06.737Z,26.98
2023-04-09T09:37:08.709Z,26.45
2023-04-09T09:40:08.705Z,26.00
2023-04-09T09:43:11.910Z,25.61
2023-04-09T09:46:14.811Z,24.82
2023-04-09T09:49:19.761Z,24.14
2023-04-09T09:52:22.873Z,23.77
2023-04-09T09:55:27.859Z,23.07
2023-04-09T09:58:33.011Z,22.48
2023-04-09T10:01:33.855Z,21.91
2023-04-09T10:04:35.507Z,21.56
2023-04-09T10:07:40.814Z,21.70
2023-04-09T10:10:40.853Z,21.66
2023-04-09T10:14:05.317Z,21.16
2023-04-09T10:17:06.858Z,20.46
2023-04-09T10:20:27.938Z,19.81
2023-04-09T10:23:35.033Z,19.70
2023-04-09T10:26:34.789Z,19.78
2023-04-09T10:29:41.957Z,20.07
2023-04-09T10:32:44.197Z,20.56
2023-04-09T10:36:01.902Z,21.33
2023-04-09T10:39:03.951Z,21.77
2023-04-09T10:42:22.023Z,21.80
2023-04-09T10:45:35.087Z,21.70
2023-04-09T10:48:37.898Z,21.87
2023-04-09T10:51:40.931Z,22.43
2023-04-09T10:54:50.064Z,22.79
2023-04-09T10:57:59.920Z,22.70
2023-04-09T11:01:06.109Z,22.70
2023-04-09T11:04:26.904Z,22.98
2023-04-09T11:07:30.176Z,23.50
2023-04-09T11:10:33.911Z,23.79
2023-04-09T11:13:36.060Z,23.68
2023-04-09T11:16:46.982Z,23.59
2023-04-09T11:19:55.124Z,23.67
2023-04-09T11:22:56.901Z,23.93
2023-04-09T11:26:03.985Z,24.03
2023-04-09T11:29:17.918Z,24.35
2023-04-09T11:32:19.092Z,24.20
2023-04-09T11:35:30.083Z,23.88
2023-04-09T11:38:32.927Z,23.06
2023-04-09T11:41:52.947Z,22.19
2023-04-09T11:45:05.931Z,21.56
2023-04-09T11:48:10.976Z,21.29
2023-04-09T11:51:14.019Z,21.62
2023-04-09T11:54:22.146Z,21.90
2023-04-09T11:58:06.965Z,22.15
2023-04-09T12:01:08.015Z,22.56
2023-04-09T12:04:19.389Z,23.07
2023-04-09T12:07:25.021Z,23.53
2023-04-09T12:10:27.572Z,23.96
2023-04-09T12:13:30.409Z,23.69
2023-04-09T12:16:32.086Z,23.13
2023-04-09T12:19:37.677Z,23.08
2023-04-09T12:23:01.064Z,22.76
2023-04-09T12:26:13.071Z,22.97
2023-04-09T12:29:22.993Z,23.04
2023-04-09T12:32:27.604Z,22.60
2023-04-09T12:35:29.107Z,22.13
2023-04-09T12:38:29.078Z,21.68
2023-04-09T12:41:30.096Z,21.24
2023-04-09T12:44:35.396Z,21.20
2023-04-09T12:47:35.119Z,21.15
2023-04-09T12:50:38.176Z,20.88
2023-04-09T12:53:39.062Z,20.61
2023-04-09T12:56:40.088Z,20.17
2023-04-09T12:59:42.234Z,19.81
2023-04-09T13:02:45.168Z,19.44
2023-04-09T13:05:54.111Z,19.01
2023-04-09T13:09:02.363Z,18.60
2023-04-09T13:12:04.160Z,18.17
2023-04-09T13:15:07.573Z,17.75
2023-04-09T13:18:15.196Z,17.53
2023-04-09T13:21:25.162Z,17.45
2023-04-09T13:24:25.641Z,17.28
2023-04-09T13:27:28.171Z,17.09
2023-04-09T13:30:32.174Z,16.90
2023-04-09T13:33:53.311Z,16.73
2023-04-09T13:36:56.416Z,16.55
2023-04-09T13:39:59.224Z,16.38
2023-04-09T13:43:01.205Z,16.24
2023-04-09T13:46:02.178Z,16.21
2023-04-09T13:49:06.189Z,16.09
2023-04-09T13:52:08.281Z,15.80
2023-04-09T13:55:13.813Z,15.33
2023-04-09T13:58:16.197Z,14.76
2023-04-09T14:01:17.773Z,14.24
2023-04-09T14:04:18.340Z,13.80
2023-04-09T14:07:21.292Z,13.45
2023-04-09T14:10:24.478Z,13.23
2023-04-09T14:13:17.336Z,13.03
2023-04-09T14:16:19.293Z,12.78
2023-04-09T14:19:20.260Z,12.59
2023-04-09T14:22:24.541Z,12.50
2023-04-09T14:25:25.257Z,12.44
2023-04-09T14:28:25.557Z,12.36
2023-04-09T14:31:28.371Z,12.26
2023-04-09T14:34:28.201Z,12.19
2023-04-09T14:37:31.254Z,12.17
2023-04-09T14:40:32.297Z,12.07
2023-04-09T14:43:32.349Z,11.91
2023-04-09T14:46:33.445Z,11.85
2023-04-09T14:49:35.302Z,11.77
2023-04-09T14:52:45.668Z,11.66
2023-04-09T14:56:05.342Z,11.54
2023-04-09T14:59:08.495Z,11.43
2023-04-09T15:02:18.914Z,11.39
2023-04-09T15:05:20.305Z,11.33
2023-04-09T15:08:33.989Z,11.28
2023-04-09T15:11:42.416Z,11.22
2023-04-09T15:14:53.337Z,11.20
2023-04-09T15:18:12.424Z,11.18
2023-04-09T15:21:13.475Z,11.14
2023-04-09T15:24:21.366Z,11.07
2023-04-09T15:27:27.418Z,11.04
2023-04-09T15:30:43.380Z,11.01
2023-04-09T15:33:51.864Z,10.95
2023-04-09T15:37:00.475Z,10.91
2023-04-09T15:40:01.511Z,10.88
2023-04-09T15:43:04.042Z,10.83
2023-04-09T15:46:09.454Z,10.82
2023-04-09T15:49:09.422Z,10.78
2023-04-09T15:52:10.501Z,10.74
2023-04-09T15:55:14.458Z,10.73
2023-04-09T15:58:18.430Z,10.71
2023-04-09T16:01:21.577Z,10.71
2023-04-09T16:04:24.671Z,10.70
2023-04-09T16:07:26.529Z,10.71
2023-04-09T16:10:29.461Z,10.69
2023-04-09T16:13:31.730Z,10.68
2023-04-09T16:16:34.707Z,10.65
2023-04-09T16:19:36.475Z,10.64
2023-04-09T16:22:41.469Z,10.62
2023-04-09T16:25:42.519Z,10.59
2023-04-09T16:28:44.569Z,10.56
2023-04-09T16:31:50.405Z,10.56
2023-04-09T16:35:11.013Z,10.56
2023-04-09T16:38:26.816Z,10.54
2023-04-09T16:41:52.654Z,10.53
2023-04-09T16:44:56.982Z,10.55
2023-04-09T16:48:23.639Z,10.53
2023-04-09T16:51:32.839Z,10.51
2023-04-09T16:54:39.510Z,10.51
2023-04-09T16:57:41.522Z,10.51
2023-04-09T17:00:49.294Z,10.49
2023-04-09T17:04:08.590Z,10.49
2023-04-09T17:07:38.425Z,10.49
2023-04-09T17:10:46.779Z,10.47
2023-04-09T17:14:01.898Z,10.44
2023-04-09T17:17:03.766Z,10.40
2023-04-09T17:20:04.685Z,10.35
2023-04-09T17:23:20.614Z,10.28
2023-04-09T17:26:21.896Z,10.23
2023-04-09T17:29:25.611Z,10.18
2023-04-09T17:32:32.639Z,10.15
2023-04-09T17:35:42.598Z,10.12
2023-04-09T17:38:42.597Z,10.11
2023-04-09T17:41:45.759Z,10.06
2023-04-09T17:44:52.601Z,10.03
2023-04-09T17:47:57.556Z,10.01
2023-04-09T17:51:12.221Z,9.98
2023-04-09T17:54:15.623Z,9.94
2023-04-09T17:57:18.688Z,9.93
2023-04-09T18:00:23.719Z,9.93
2023-04-09T18:03:27.881Z,9.94
2023-04-09T18:06:28.672Z,9.97
2023-04-09T18:09:28.662Z,9.98
2023-04-09T18:12:28.654Z,9.98
2023-04-09T18:19:08.676Z,10.00
2023-04-09T18:22:12.784Z,10.01
2023-04-09T18:25:12.727Z,10.01
2023-04-09T18:28:15.623Z,10.03
2023-04-09T18:31:44.774Z,10.03
2023-04-09T18:34:50.678Z,10.00
2023-04-09T18:37:53.798Z,9.95
2023-04-09T18:40:56.708Z,9.94
2023-04-09T18:43:58.755Z,9.93
2023-04-09T18:47:01.763Z,9.92
2023-04-09T18:50:07.271Z,9.92
2023-04-09T18:53:09.777Z,9.92
2023-04-09T18:56:14.770Z,9.94
2023-04-09T18:59:15.739Z,9.96
2023-04-09T19:02:16.884Z,9.98
2023-04-09T19:05:16.818Z,9.97
2023-04-09T19:08:18.771Z,9.95
2023-04-09T19:11:21.736Z,9.91
2023-04-09T19:14:21.782Z,9.86
2023-04-09T19:17:22.207Z,9.84
2023-04-09T19:20:25.748Z,9.83
2023-04-09T19:23:25.809Z,9.85
2023-04-09T19:26:26.770Z,9.87
2023-04-09T19:29:29.068Z,9.88
2023-04-09T19:32:32.873Z,9.87
2023-04-09T19:35:35.109Z,9.88
2023-04-09T19:38:35.780Z,9.87
2023-04-09T19:41:36.948Z,9.88
2023-04-09T19:44:43.822Z,9.89
2023-04-09T19:47:44.981Z,9.89
2023-04-09T19:50:49.985Z,9.88
2023-04-09T19:53:50.787Z,9.88
2023-04-09T19:56:52.893Z,9.88
2023-04-09T19:59:56.251Z,9.90
2023-04-09T20:03:05.976Z,9.88
2023-04-09T20:06:06.413Z,9.87
2023-04-09T20:09:08.141Z,9.84
2023-04-09T20:12:11.847Z,9.85
2023-04-09T20:15:12.910Z,9.86
2023-04-09T20:18:13.997Z,9.87
2023-04-09T20:21:15.033Z,9.87
2023-04-09T20:24:16.859Z,9.87
2023-04-09T20:27:17.865Z,9.87
2023-04-09T20:30:18.900Z,9.87
2023-04-09T20:33:20.871Z,9.87
2023-04-09T20:36:30.899Z,9.86
2023-04-09T20:39:40.024Z,9.87
2023-04-09T20:42:39.936Z,9.84
2023-04-09T20:45:42.080Z,9.79
2023-04-09T20:48:46.419Z,9.75
2023-04-09T20:51:47.895Z,9.74
2023-04-09T20:54:44.631Z,9.75
2023-04-09T20:57:50.128Z,9.75
2023-04-09T21:00:50.977Z,9.76
2023-04-09T21:03:51.059Z,9.76
2023-04-09T21:06:52.013Z,9.76
2023-04-09T21:09:53.920Z,9.75
2023-04-09T21:13:04.952Z,9.74
2023-04-09T21:16:08.031Z,9.71
2023-04-09T21:19:13.081Z,9.70
2023-04-09T21:22:18.256Z,9.69
2023-04-09T21:25:19.180Z,9.70
2023-04-09T21:28:21.047Z,9.71
2023-04-09T21:34:38.989Z,9.67
2023-04-09T21:37:47.004Z,9.69
2023-04-09T21:40:46.973Z,9.71
2023-04-09T21:43:47.972Z,9.72
2023-04-09T21:46:48.001Z,9.73
2023-04-09T21:49:50.157Z,9.73
2023-04-09T21:52:53.013Z,9.73
2023-04-09T21:55:53.058Z,9.73
2023-04-09T21:58:53.198Z,9.71
2023-04-09T22:01:53.097Z,9.69
2023-04-09T22:04:53.071Z,9.67
2023-04-09T22:07:54.077Z,9.66
2023-04-09T22:10:55.046Z,9.67
2023-04-09T22:14:00.114Z,9.65
2023-04-09T22:17:04.185Z,9.63
2023-04-09T22:20:04.074Z,9.60
2023-04-09T22:23:09.093Z,9.59
2023-04-09T22:26:15.088Z,9.58
2023-04-09T22:29:15.148Z,9.58
2023-04-09T22:32:17.132Z,9.57
2023-04-09T22:35:21.129Z,9.56
2023-04-09T22:38:21.105Z,9.56
2023-04-09T22:41:23.229Z,9.55
2023-04-09T22:44:23.166Z,9.54
2023-04-09T22:47:24.146Z,9.54
2023-04-09T22:50:25.147Z,9.55
2023-04-09T22:53:25.255Z,9.53
2023-04-09T22:56:25.219Z,9.53
2023-04-09T22:59:37.216Z,9.52
2023-04-09T23:02:39.197Z,9.49
2023-04-09T23:05:40.141Z,9.47
2023-04-09T23:08:40.855Z,9.45
2023-04-09T23:11:47.157Z,9.42
2023-04-09T23:14:49.510Z,9.40
2023-04-09T23:17:51.209Z,9.41
2023-04-09T23:20:51.183Z,9.40
2023-04-09T23:23:52.533Z,9.36
2023-04-09T23:26:54.167Z,9.35
2023-04-09T23:29:55.260Z,9.34
2023-04-09T23:32:59.180Z,9.35
2023-04-09T23:35:59.242Z,9.32
2023-04-09T23:39:07.202Z,9.31
2023-04-09T23:42:08.255Z,9.30
2023-04-09T23:45:14.280Z,9.29
2023-04-09T23:48:14.286Z,9.29
2023-04-09T23:51:15.285Z,9.27
2023-04-09T23:54:15.207Z,9.24
2023-04-09T23:57:24.233Z,9.23
